sensor_id;sensor_type;location;lat;lon;timestamp;pressure;altitude;pressure_sealevel;temperature;humidity
46778;BME280;32536;47.128;8.746;2022-11-06T00:01:43;91891.66;;;7.67;55.85
46778;BME280;32536;47.128;8.746;2022-11-06T00:04:10;91889.72;;;7.60;55.71
46778;BME280;32536;47.128;8.746;2022-11-06T00:06:37;91893.16;;;7.61;56.11
46778;BME280;32536;47.128;8.746;2022-11-06T00:09:15;91898.50;;;7.64;56.30
46778;BME280;32536;47.128;8.746;2022-11-06T00:11:43;91895.84;;;7.64;55.86
46778;BME280;32536;47.128;8.746;2022-11-06T00:14:11;91893.91;;;7.65;56.21
46778;BME280;32536;47.128;8.746;2022-11-06T00:16:39;91899.63;;;7.63;55.69
46778;BME280;32536;47.128;8.746;2022-11-06T00:19:07;91896.97;;;7.63;55.85
46778;BME280;32536;47.128;8.746;2022-11-06T00:21:34;91896.97;;;7.60;55.66
46778;BME280;32536;47.128;8.746;2022-11-06T00:24:04;91910.28;;;7.56;56.00
46778;BME280;32536;47.128;8.746;2022-11-06T00:26:32;91915.22;;;7.58;56.64
46778;BME280;32536;47.128;8.746;2022-11-06T00:29:00;91920.56;;;7.58;56.36
46778;BME280;32536;47.128;8.746;2022-11-06T00:31:31;91902.28;;;7.56;55.65
46778;BME280;32536;47.128;8.746;2022-11-06T00:34:00;91893.91;;;7.58;55.68
46778;BME280;32536;47.128;8.746;2022-11-06T00:36:29;91893.16;;;7.57;56.26
46778;BME280;32536;47.128;8.746;2022-11-06T00:38:57;91905.34;;;7.55;55.88
46778;BME280;32536;47.128;8.746;2022-11-06T00:41:25;91901.13;;;7.50;56.16
46778;BME280;32536;47.128;8.746;2022-11-06T00:43:56;91902.66;;;7.51;55.87
46778;BME280;32536;47.128;8.746;2022-11-06T00:46:24;91912.56;;;7.58;56.68
46778;BME280;32536;47.128;8.746;2022-11-06T00:48:52;91893.91;;;7.61;56.38
46778;BME280;32536;47.128;8.746;2022-11-06T00:51:22;91888.59;;;7.61;55.79
46778;BME280;32536;47.128;8.746;2022-11-06T00:53:56;91893.16;;;7.61;55.62
46778;BME280;32536;47.128;8.746;2022-11-06T00:56:24;91885.56;;;7.59;56.08
46778;BME280;32536;47.128;8.746;2022-11-06T00:58:51;91869.91;;;7.58;56.24
46778;BME280;32536;47.128;8.746;2022-11-06T01:01:24;91863.84;;;7.57;55.92
46778;BME280;32536;47.128;8.746;2022-11-06T01:03:59;91866.88;;;7.59;55.67
46778;BME280;32536;47.128;8.746;2022-11-06T01:06:29;91865.72;;;7.64;55.77
46778;BME280;32536;47.128;8.746;2022-11-06T01:08:58;91854.72;;;7.65;55.90
46778;BME280;32536;47.128;8.746;2022-11-06T01:11:31;91850.13;;;7.62;55.19
46778;BME280;32536;47.128;8.746;2022-11-06T01:14:05;91844.78;;;7.62;55.24
46778;BME280;32536;47.128;8.746;2022-11-06T01:16:34;91828.41;;;7.60;55.12
46778;BME280;32536;47.128;8.746;2022-11-06T01:19:00;91827.66;;;7.60;55.82
46778;BME280;32536;47.128;8.746;2022-11-06T01:21:31;91834.50;;;7.61;55.70
46778;BME280;32536;47.128;8.746;2022-11-06T01:24:06;91841.38;;;7.62;55.43
46778;BME280;32536;47.128;8.746;2022-11-06T01:26:35;91849.72;;;7.64;55.59
46778;BME280;32536;47.128;8.746;2022-11-06T01:29:04;91855.06;;;7.60;55.19
46778;BME280;32536;47.128;8.746;2022-11-06T01:31:33;91866.50;;;7.57;55.97
46778;BME280;32536;47.128;8.746;2022-11-06T01:34:01;91858.88;;;7.52;55.40
46778;BME280;32536;47.128;8.746;2022-11-06T01:36:29;91851.22;;;7.47;55.85
46778;BME280;32536;47.128;8.746;2022-11-06T01:39:00;91852.41;;;7.42;56.14
46778;BME280;32536;47.128;8.746;2022-11-06T01:41:38;91843.22;;;7.40;55.61
46778;BME280;32536;47.128;8.746;2022-11-06T01:47:22;91846.28;;;7.34;56.10
46778;BME280;32536;47.128;8.746;2022-11-06T01:49:56;91845.53;;;7.41;56.09
46778;BME280;32536;47.128;8.746;2022-11-06T01:52:29;91845.91;;;7.43;56.40
46778;BME280;32536;47.128;8.746;2022-11-06T01:55:07;91848.94;;;7.42;55.85
46778;BME280;32536;47.128;8.746;2022-11-06T01:57:40;91841.75;;;7.46;55.96
46778;BME280;32536;47.128;8.746;2022-11-06T02:00:08;91844.03;;;7.51;56.05
46778;BME280;32536;47.128;8.746;2022-11-06T02:02:36;91837.56;;;7.52;55.44
46778;BME280;32536;47.128;8.746;2022-11-06T02:05:04;91840.22;;;7.56;56.25
46778;BME280;32536;47.128;8.746;2022-11-06T02:07:31;91842.13;;;7.59;55.99
46778;BME280;32536;47.128;8.746;2022-11-06T02:09:58;91832.97;;;7.60;55.79
46778;BME280;32536;47.128;8.746;2022-11-06T02:15:54;91821.16;;;7.46;55.81
46778;BME280;32536;47.128;8.746;2022-11-06T02:24:51;91801.75;;;7.42;55.57
46778;BME280;32536;47.128;8.746;2022-11-06T02:27:25;91799.44;;;7.48;55.87
46778;BME280;32536;47.128;8.746;2022-11-06T02:30:04;91807.44;;;7.44;56.07
46778;BME280;32536;47.128;8.746;2022-11-06T02:35:40;91800.97;;;7.42;55.59
46778;BME280;32536;47.128;8.746;2022-11-06T02:38:17;91806.69;;;7.44;56.04
46778;BME280;32536;47.128;8.746;2022-11-06T02:40:51;91801.38;;;7.47;55.68
46778;BME280;32536;47.128;8.746;2022-11-06T02:43:23;91788.78;;;7.48;55.83
46778;BME280;32536;47.128;8.746;2022-11-06T02:45:57;91786.91;;;7.45;55.85
46778;BME280;32536;47.128;8.746;2022-11-06T02:48:37;91776.25;;;7.41;55.80
46778;BME280;32536;47.128;8.746;2022-11-06T02:51:09;91775.47;;;7.37;56.84
46778;BME280;32536;47.128;8.746;2022-11-06T02:53:39;91782.69;;;7.36;56.37
46778;BME280;32536;47.128;8.746;2022-11-06T02:56:11;91771.66;;;7.42;56.21
46778;BME280;32536;47.128;8.746;2022-11-06T02:58:53;91765.94;;;7.47;55.42
46778;BME280;32536;47.128;8.746;2022-11-06T03:03:55;91761.00;;;7.45;55.91
46778;BME280;32536;47.128;8.746;2022-11-06T03:06:51;91753.78;;;7.42;54.96
46778;BME280;32536;47.128;8.746;2022-11-06T03:09:27;91743.88;;;7.43;54.85
46778;BME280;32536;47.128;8.746;2022-11-06T03:12:06;91741.94;;;7.36;54.17
46778;BME280;32536;47.128;8.746;2022-11-06T03:14:50;91736.25;;;7.27;55.14
46778;BME280;32536;47.128;8.746;2022-11-06T03:17:42;91732.44;;;7.10;54.32
46778;BME280;32536;47.128;8.746;2022-11-06T03:20:42;91732.03;;;6.89;54.68
46778;BME280;32536;47.128;8.746;2022-11-06T03:26:36;91713.34;;;6.64;56.22
46778;BME280;32536;47.128;8.746;2022-11-06T03:37:54;91716.41;;;6.84;56.18
46778;BME280;32536;47.128;8.746;2022-11-06T03:40:31;91722.13;;;6.86;55.61
46778;BME280;32536;47.128;8.746;2022-11-06T03:43:03;91718.72;;;6.93;56.49
46778;BME280;32536;47.128;8.746;2022-11-06T03:45:33;91719.09;;;7.02;56.35
46778;BME280;32536;47.128;8.746;2022-11-06T03:48:26;91740.03;;;7.08;55.74
46778;BME280;32536;47.128;8.746;2022-11-06T03:51:06;91738.16;;;7.12;55.41
46778;BME280;32536;47.128;8.746;2022-11-06T03:53:49;91739.66;;;7.13;55.40
46778;BME280;32536;47.128;8.746;2022-11-06T03:56:42;91740.03;;;7.00;55.81
46778;BME280;32536;47.128;8.746;2022-11-06T03:59:15;91735.47;;;6.97;56.91
46778;BME280;32536;47.128;8.746;2022-11-06T04:01:49;91730.53;;;6.92;56.49
46778;BME280;32536;47.128;8.746;2022-11-06T04:04:23;91719.47;;;6.90;57.16
46778;BME280;32536;47.128;8.746;2022-11-06T04:06:56;91727.09;;;6.88;56.46
46778;BME280;32536;47.128;8.746;2022-11-06T04:09:32;91732.81;;;6.90;56.24
46778;BME280;32536;47.128;8.746;2022-11-06T04:12:24;91738.50;;;6.88;56.90
46778;BME280;32536;47.128;8.746;2022-11-06T04:15:16;91733.94;;;6.85;55.42
46778;BME280;32536;47.128;8.746;2022-11-06T04:17:44;91735.47;;;6.86;56.38
46778;BME280;32536;47.128;8.746;2022-11-06T04:20:42;91728.22;;;6.91;55.90
46778;BME280;32536;47.128;8.746;2022-11-06T04:24:00;91732.81;;;7.01;56.24
46778;BME280;32536;47.128;8.746;2022-11-06T04:37:43;91727.09;;;7.10;54.18
46778;BME280;32536;47.128;8.746;2022-11-06T04:43:45;91724.78;;;6.79;55.14
46778;BME280;32536;47.128;8.746;2022-11-06T04:46:23;91714.16;;;6.83;55.76
46778;BME280;32536;47.128;8.746;2022-11-06T04:48:53;91721.00;;;6.87;55.77
46778;BME280;32536;47.128;8.746;2022-11-06T04:51:23;91722.53;;;6.88;54.69
46778;BME280;32536;47.128;8.746;2022-11-06T04:53:53;91724.03;;;6.89;55.18
46778;BME280;32536;47.128;8.746;2022-11-06T04:56:26;91728.22;;;6.91;55.39
46778;BME280;32536;47.128;8.746;2022-11-06T04:58:55;91719.88;;;6.92;55.80
46778;BME280;32536;47.128;8.746;2022-11-06T05:01:22;91708.44;;;6.92;55.60
46778;BME280;32536;47.128;8.746;2022-11-06T05:03:48;91699.31;;;6.89;55.99
46778;BME280;32536;47.128;8.746;2022-11-06T05:06:15;91700.84;;;6.83;55.76
46778;BME280;32536;47.128;8.746;2022-11-06T05:08:42;91701.56;;;6.80;56.37
46778;BME280;32536;47.128;8.746;2022-11-06T05:11:09;91693.97;;;6.82;55.94
46778;BME280;32536;47.128;8.746;2022-11-06T05:13:36;91693.22;;;6.85;56.28
46778;BME280;32536;47.128;8.746;2022-11-06T05:16:03;91695.91;;;6.88;56.39
46778;BME280;32536;47.128;8.746;2022-11-06T05:18:30;91686.75;;;6.89;55.95
46778;BME280;32536;47.128;8.746;2022-11-06T05:20:59;91678.00;;;6.89;56.45
46778;BME280;32536;47.128;8.746;2022-11-06T05:23:45;91676.88;;;6.90;56.19
46778;BME280;32536;47.128;8.746;2022-11-06T05:26:11;91683.72;;;6.91;56.34
46778;BME280;32536;47.128;8.746;2022-11-06T05:28:38;91684.88;;;6.90;56.05
46778;BME280;32536;47.128;8.746;2022-11-06T05:31:05;91674.97;;;6.94;56.11
46778;BME280;32536;47.128;8.746;2022-11-06T05:33:32;91667.38;;;7.00;56.04
46778;BME280;32536;47.128;8.746;2022-11-06T05:36:03;91665.44;;;7.04;55.55
46778;BME280;32536;47.128;8.746;2022-11-06T05:38:31;91659.75;;;7.09;55.57
46778;BME280;32536;47.128;8.746;2022-11-06T05:40:58;91664.72;;;7.07;55.96
46778;BME280;32536;47.128;8.746;2022-11-06T05:43:25;91660.13;;;7.00;56.39
46778;BME280;32536;47.128;8.746;2022-11-06T05:45:52;91657.84;;;6.95;56.43
46778;BME280;32536;47.128;8.746;2022-11-06T05:48:19;91657.09;;;6.95;55.82
46778;BME280;32536;47.128;8.746;2022-11-06T05:50:46;91649.84;;;6.95;55.98
46778;BME280;32536;47.128;8.746;2022-11-06T05:53:12;91658.25;;;7.01;55.70
46778;BME280;32536;47.128;8.746;2022-11-06T05:55:39;91663.19;;;7.06;56.28
46778;BME280;32536;47.128;8.746;2022-11-06T05:58:06;91667.72;;;7.09;55.28
46778;BME280;32536;47.128;8.746;2022-11-06T06:00:33;91672.69;;;7.07;55.68
46778;BME280;32536;47.128;8.746;2022-11-06T06:03:01;91662.78;;;7.04;55.57
46778;BME280;32536;47.128;8.746;2022-11-06T06:05:28;91670.03;;;7.03;55.12
46778;BME280;32536;47.128;8.746;2022-11-06T06:07:54;91671.91;;;6.99;55.11
46778;BME280;32536;47.128;8.746;2022-11-06T06:10:21;91669.25;;;6.99;55.12
46778;BME280;32536;47.128;8.746;2022-11-06T06:12:48;91655.56;;;6.94;54.82
46778;BME280;32536;47.128;8.746;2022-11-06T06:15:15;91655.19;;;6.84;55.42
46778;BME280;32536;47.128;8.746;2022-11-06T06:17:42;91651.75;;;6.77;55.85
46778;BME280;32536;47.128;8.746;2022-11-06T06:20:11;91647.94;;;6.70;55.98
46778;BME280;32536;47.128;8.746;2022-11-06T06:22:38;91643.75;;;6.66;55.76
46778;BME280;32536;47.128;8.746;2022-11-06T06:25:05;91640.34;;;6.69;55.93
46778;BME280;32536;47.128;8.746;2022-11-06T06:27:32;91643.00;;;6.65;55.73
46778;BME280;32536;47.128;8.746;2022-11-06T06:29:59;91660.13;;;6.64;56.33
46778;BME280;32536;47.128;8.746;2022-11-06T06:32:26;91651.75;;;6.69;56.01
46778;BME280;32536;47.128;8.746;2022-11-06T06:34:52;91660.13;;;6.71;55.97
46778;BME280;32536;47.128;8.746;2022-11-06T06:37:19;91659.75;;;6.77;56.36
46778;BME280;32536;47.128;8.746;2022-11-06T06:39:46;91659.38;;;6.85;55.96
46778;BME280;32536;47.128;8.746;2022-11-06T06:42:13;91665.44;;;6.93;55.67
46778;BME280;32536;47.128;8.746;2022-11-06T06:44:39;91658.97;;;6.98;55.02
46778;BME280;32536;47.128;8.746;2022-11-06T06:47:06;91653.66;;;7.01;55.82
46778;BME280;32536;47.128;8.746;2022-11-06T06:49:33;91640.34;;;7.01;55.28
46778;BME280;32536;47.128;8.746;2022-11-06T06:52:00;91640.72;;;7.03;55.01
46778;BME280;32536;47.128;8.746;2022-11-06T06:54:27;91638.81;;;7.08;55.29
46778;BME280;32536;47.128;8.746;2022-11-06T06:56:54;91631.97;;;7.10;55.27
46778;BME280;32536;47.128;8.746;2022-11-06T06:59:20;91612.56;;;7.06;55.31
46778;BME280;32536;47.128;8.746;2022-11-06T07:01:47;91617.50;;;7.00;56.19
46778;BME280;32536;47.128;8.746;2022-11-06T07:04:14;91611.44;;;6.96;55.08
46778;BME280;32536;47.128;8.746;2022-11-06T07:06:40;91614.47;;;6.98;55.57
46778;BME280;32536;47.128;8.746;2022-11-06T07:09:07;91608.38;;;7.01;55.82
46778;BME280;32536;47.128;8.746;2022-11-06T07:11:34;91595.84;;;7.05;55.88
46778;BME280;32536;47.128;8.746;2022-11-06T07:14:01;91593.53;;;7.08;55.38
46778;BME280;32536;47.128;8.746;2022-11-06T07:16:27;91603.44;;;7.03;55.63
46778;BME280;32536;47.128;8.746;2022-11-06T07:18:55;91589.75;;;7.01;55.21
46778;BME280;32536;47.128;8.746;2022-11-06T07:21:21;91589.00;;;7.01;55.58
46778;BME280;32536;47.128;8.746;2022-11-06T07:23:48;91584.03;;;6.99;55.90
46778;BME280;32536;47.128;8.746;2022-11-06T07:26:15;91579.47;;;6.96;55.04
46778;BME280;32536;47.128;8.746;2022-11-06T07:28:42;91574.91;;;6.89;55.66
46778;BME280;32536;47.128;8.746;2022-11-06T07:31:09;91569.59;;;6.82;55.81
46778;BME280;32536;47.128;8.746;2022-11-06T07:33:38;91572.28;;;6.75;55.38
46778;BME280;32536;47.128;8.746;2022-11-06T07:36:10;91573.41;;;6.70;55.52
46778;BME280;32536;47.128;8.746;2022-11-06T07:38:40;91568.09;;;6.70;55.00
46778;BME280;32536;47.128;8.746;2022-11-06T07:41:10;91566.94;;;6.75;55.38
46778;BME280;32536;47.128;8.746;2022-11-06T07:43:40;91560.47;;;6.76;55.83
46778;BME280;32536;47.128;8.746;2022-11-06T07:46:08;91554.00;;;6.81;55.72
46778;BME280;32536;47.128;8.746;2022-11-06T07:48:36;91542.59;;;6.91;55.73
46778;BME280;32536;47.128;8.746;2022-11-06T07:51:06;91539.91;;;6.98;55.29
46778;BME280;32536;47.128;8.746;2022-11-06T07:53:34;91545.22;;;7.02;55.65
46778;BME280;32536;47.128;8.746;2022-11-06T07:56:01;91532.28;;;7.04;55.31
46778;BME280;32536;47.128;8.746;2022-11-06T07:58:28;91533.06;;;7.04;56.14
46778;BME280;32536;47.128;8.746;2022-11-06T08:00:56;91533.41;;;7.03;55.49
46778;BME280;32536;47.128;8.746;2022-11-06T08:03:25;91523.94;;;7.02;56.37
46778;BME280;32536;47.128;8.746;2022-11-06T08:05:56;91520.09;;;7.07;55.86
46778;BME280;32536;47.128;8.746;2022-11-06T08:08:23;91508.66;;;7.17;56.51
46778;BME280;32536;47.128;8.746;2022-11-06T08:10:50;91513.19;;;7.20;56.28
46778;BME280;32536;47.128;8.746;2022-11-06T08:13:18;91498.34;;;7.26;56.22
46778;BME280;32536;47.128;8.746;2022-11-06T08:15:45;91497.19;;;7.31;56.03
46778;BME280;32536;47.128;8.746;2022-11-06T08:18:12;91499.09;;;7.30;56.04
46778;BME280;32536;47.128;8.746;2022-11-06T08:20:55;91492.97;;;7.33;55.62
46778;BME280;32536;47.128;8.746;2022-11-06T08:23:22;91492.59;;;7.39;56.26
46778;BME280;32536;47.128;8.746;2022-11-06T08:25:55;91487.25;;;7.42;56.24
46778;BME280;32536;47.128;8.746;2022-11-06T08:28:24;91488.72;;;7.50;55.66
46778;BME280;32536;47.128;8.746;2022-11-06T08:30:51;91491.00;;;7.56;55.92
46778;BME280;32536;47.128;8.746;2022-11-06T08:33:20;91486.41;;;7.56;55.68
46778;BME280;32536;47.128;8.746;2022-11-06T08:35:47;91480.34;;;7.52;55.49
46778;BME280;32536;47.128;8.746;2022-11-06T08:38:14;91481.84;;;7.53;55.95
46778;BME280;32536;47.128;8.746;2022-11-06T08:40:41;91481.47;;;7.55;56.00
46778;BME280;32536;47.128;8.746;2022-11-06T08:43:09;91480.31;;;7.59;55.65
46778;BME280;32536;47.128;8.746;2022-11-06T08:45:40;91484.84;;;7.66;55.67
46778;BME280;32536;47.128;8.746;2022-11-06T08:48:08;91468.06;;;7.73;56.45
46778;BME280;32536;47.128;8.746;2022-11-06T08:50:37;91471.84;;;7.79;56.49
46778;BME280;32536;47.128;8.746;2022-11-06T08:53:05;91467.22;;;7.87;56.49
46778;BME280;32536;47.128;8.746;2022-11-06T08:55:33;91466.38;;;7.93;56.31
46778;BME280;32536;47.128;8.746;2022-11-06T08:58:02;91453.81;;;7.97;56.38
46778;BME280;32536;47.128;8.746;2022-11-06T09:00:31;91448.41;;;8.05;56.42
46778;BME280;32536;47.128;8.746;2022-11-06T09:03:11;91453.31;;;8.13;55.52
46778;BME280;32536;47.128;8.746;2022-11-06T09:05:40;91461.97;;;8.25;56.51
46778;BME280;32536;47.128;8.746;2022-11-06T09:08:08;91468.75;;;8.37;56.41
46778;BME280;32536;47.128;8.746;2022-11-06T09:10:37;91462.94;;;8.45;56.20
46778;BME280;32536;47.128;8.746;2022-11-06T09:13:05;91457.59;;;8.53;55.48
46778;BME280;32536;47.128;8.746;2022-11-06T09:15:32;91458.31;;;8.57;55.85
46778;BME280;32536;47.128;8.746;2022-11-06T09:17:59;91457.94;;;8.58;55.53
46778;BME280;32536;47.128;8.746;2022-11-06T09:21:00;91461.72;;;8.61;54.44
46778;BME280;32536;47.128;8.746;2022-11-06T09:23:26;91462.72;;;8.74;56.16
46778;BME280;32536;47.128;8.746;2022-11-06T09:25:55;91474.88;;;8.83;55.73
46778;BME280;32536;47.128;8.746;2022-11-06T09:28:23;91474.34;;;8.95;55.96
46778;BME280;32536;47.128;8.746;2022-11-06T09:30:49;91479.19;;;9.07;55.69
46778;BME280;32536;47.128;8.746;2022-11-06T09:33:16;91472.66;;;9.12;55.71
46778;BME280;32536;47.128;8.746;2022-11-06T09:35:43;91471.50;;;9.13;55.82
46778;BME280;32536;47.128;8.746;2022-11-06T09:38:11;91464.94;;;9.18;55.91
46778;BME280;32536;47.128;8.746;2022-11-06T09:40:55;91459.97;;;9.20;54.71
46778;BME280;32536;47.128;8.746;2022-11-06T09:43:53;91480.59;;;9.19;54.78
46778;BME280;32536;47.128;8.746;2022-11-06T09:46:41;91487.47;;;9.17;55.90
46778;BME280;32536;47.128;8.746;2022-11-06T09:49:23;91468.47;;;9.11;56.08
46778;BME280;32536;47.128;8.746;2022-11-06T09:52:33;91471.88;;;9.11;56.17
46778;BME280;32536;47.128;8.746;2022-11-06T10:00:24;91461.34;;;8.97;56.53
46778;BME280;32536;47.128;8.746;2022-11-06T10:02:54;91460.59;;;8.96;56.77
46778;BME280;32536;47.128;8.746;2022-11-06T10:05:34;91454.88;;;8.94;56.61
46778;BME280;32536;47.128;8.746;2022-11-06T10:08:05;91457.19;;;8.96;56.85
46778;BME280;32536;47.128;8.746;2022-11-06T10:19:39;91440.31;;;9.34;56.31
46778;BME280;32536;47.128;8.746;2022-11-06T10:22:39;91434.78;;;9.48;56.60
46778;BME280;32536;47.128;8.746;2022-11-06T10:25:20;91424.31;;;9.61;55.80
46778;BME280;32536;47.128;8.746;2022-11-06T10:34:03;91441.19;;;9.85;56.06
46778;BME280;32536;47.128;8.746;2022-11-06T10:36:53;91436.13;;;9.91;55.65
46778;BME280;32536;47.128;8.746;2022-11-06T10:39:31;91424.22;;;9.96;56.33
46778;BME280;32536;47.128;8.746;2022-11-06T10:42:14;91420.06;;;9.91;56.33
46778;BME280;32536;47.128;8.746;2022-11-06T10:44:54;91426.75;;;9.79;56.41
46778;BME280;32536;47.128;8.746;2022-11-06T10:47:50;91425.75;;;9.69;56.63
46778;BME280;32536;47.128;8.746;2022-11-06T10:50:23;91423.97;;;9.59;56.66
46778;BME280;32536;47.128;8.746;2022-11-06T10:53:06;91413.03;;;9.50;56.76
46778;BME280;32536;47.128;8.746;2022-11-06T10:58:34;91425.78;;;9.35;57.10
46778;BME280;32536;47.128;8.746;2022-11-06T11:01:03;91419.41;;;9.25;57.10
46778;BME280;32536;47.128;8.746;2022-11-06T11:05:59;91405.44;;;9.13;57.51
46778;BME280;32536;47.128;8.746;2022-11-06T11:13:42;91408.16;;;9.10;57.77
46778;BME280;32536;47.128;8.746;2022-11-06T11:16:19;91405.06;;;9.11;57.82
46778;BME280;32536;47.128;8.746;2022-11-06T11:18:53;91399.69;;;9.15;57.88
46778;BME280;32536;47.128;8.746;2022-11-06T11:21:25;91405.75;;;9.19;57.83
46778;BME280;32536;47.128;8.746;2022-11-06T11:24:06;91412.47;;;9.31;57.69
46778;BME280;32536;47.128;8.746;2022-11-06T11:26:46;91416.13;;;9.44;57.85
46778;BME280;32536;47.128;8.746;2022-11-06T11:29:46;91408.38;;;9.54;57.13
46778;BME280;32536;47.128;8.746;2022-11-06T11:32:16;91393.38;;;9.60;57.29
46778;BME280;32536;47.128;8.746;2022-11-06T11:34:53;91391.41;;;9.64;57.49
46778;BME280;32536;47.128;8.746;2022-11-06T11:37:30;91383.69;;;9.70;57.50
46778;BME280;32536;47.128;8.746;2022-11-06T11:40:17;91387.44;;;9.76;56.95
46778;BME280;32536;47.128;8.746;2022-11-06T11:46:17;91375.88;;;9.83;57.20
46778;BME280;32536;47.128;8.746;2022-11-06T11:48:50;91365.97;;;9.80;57.62
46778;BME280;32536;47.128;8.746;2022-11-06T12:02:33;91347.19;;;10.07;57.05
46778;BME280;32536;47.128;8.746;2022-11-06T12:05:05;91347.78;;;10.18;57.20
46778;BME280;32536;47.128;8.746;2022-11-06T12:07:37;91339.97;;;10.28;57.36
46778;BME280;32536;47.128;8.746;2022-11-06T12:13:04;91335.34;;;10.52;57.51
46778;BME280;32536;47.128;8.746;2022-11-06T12:15:53;91333.66;;;10.62;56.96
46778;BME280;32536;47.128;8.746;2022-11-06T12:18:30;91332.78;;;10.68;56.71
46778;BME280;32536;47.128;8.746;2022-11-06T12:24:21;91339.03;;;10.82;56.76
46778;BME280;32536;47.128;8.746;2022-11-06T12:27:15;91335.44;;;10.88;56.77
46778;BME280;32536;47.128;8.746;2022-11-06T12:38:13;91321.88;;;11.16;56.39
46778;BME280;32536;47.128;8.746;2022-11-06T12:41:02;91319.59;;;11.14;55.98
46778;BME280;32536;47.128;8.746;2022-11-06T12:43:48;91321.88;;;11.16;56.54
46778;BME280;32536;47.128;8.746;2022-11-06T12:46:38;91314.50;;;11.20;55.36
46778;BME280;32536;47.128;8.746;2022-11-06T12:49:41;91306.81;;;11.22;55.77
46778;BME280;32536;47.128;8.746;2022-11-06T12:55:22;91297.69;;;11.36;55.80
46778;BME280;32536;47.128;8.746;2022-11-06T12:58:19;91298.03;;;11.38;55.79
46778;BME280;32536;47.128;8.746;2022-11-06T13:01:21;91296.03;;;11.42;55.68
46778;BME280;32536;47.128;8.746;2022-11-06T13:12:50;91293.78;;;11.74;55.82
46778;BME280;32536;47.128;8.746;2022-11-06T13:18:16;91288.16;;;11.84;55.72
46778;BME280;32536;47.128;8.746;2022-11-06T13:21:14;91291.09;;;11.90;55.71
46778;BME280;32536;47.128;8.746;2022-11-06T13:23:48;91297.41;;;12.00;56.17
46778;BME280;32536;47.128;8.746;2022-11-06T13:26:49;91285.72;;;12.07;55.40
46778;BME280;32536;47.128;8.746;2022-11-06T13:29:24;91290.50;;;12.15;56.65
46778;BME280;32536;47.128;8.746;2022-11-06T13:31:55;91284.63;;;12.21;55.89
46778;BME280;32536;47.128;8.746;2022-11-06T13:34:31;91284.94;;;12.23;56.03
46778;BME280;32536;47.128;8.746;2022-11-06T13:37:00;91283.94;;;12.16;56.16
46778;BME280;32536;47.128;8.746;2022-11-06T13:39:43;91287.91;;;12.12;56.46
46778;BME280;32536;47.128;8.746;2022-11-06T13:42:22;91286.50;;;12.07;56.05
46778;BME280;32536;47.128;8.746;2022-11-06T13:44:56;91296.63;;;11.99;56.67
46778;BME280;32536;47.128;8.746;2022-11-06T13:47:32;91304.19;;;11.88;56.49
46778;BME280;32536;47.128;8.746;2022-11-06T13:53:45;91315.25;;;11.90;56.44
46778;BME280;32536;47.128;8.746;2022-11-06T14:08:25;91314.25;;;11.67;56.66
46778;BME280;32536;47.128;8.746;2022-11-06T14:14:10;91304.84;;;11.43;56.59
46778;BME280;32536;47.128;8.746;2022-11-06T14:16:40;91301.38;;;11.26;56.83
46778;BME280;32536;47.128;8.746;2022-11-06T14:21:50;91311.88;;;11.00;56.38
46778;BME280;32536;47.128;8.746;2022-11-06T14:24:40;91302.38;;;10.95;56.36
46778;BME280;32536;47.128;8.746;2022-11-06T14:30:08;91307.47;;;11.10;56.37
46778;BME280;32536;47.128;8.746;2022-11-06T14:32:55;91310.66;;;11.21;56.58
46778;BME280;32536;47.128;8.746;2022-11-06T14:35:47;91310.09;;;11.30;55.85
46778;BME280;32536;47.128;8.746;2022-11-06T14:38:19;91306.44;;;11.40;55.52
46778;BME280;32536;47.128;8.746;2022-11-06T14:40:57;91315.06;;;11.48;56.64
46778;BME280;32536;47.128;8.746;2022-11-06T14:43:33;91316.81;;;11.54;56.17
46778;BME280;32536;47.128;8.746;2022-11-06T14:46:17;91327.00;;;11.63;55.72
46778;BME280;32536;47.128;8.746;2022-11-06T14:48:47;91331.00;;;11.72;55.91
46778;BME280;32536;47.128;8.746;2022-11-06T14:51:16;91329.75;;;11.76;56.11
46778;BME280;32536;47.128;8.746;2022-11-06T14:53:59;91337.38;;;11.78;55.43
46778;BME280;32536;47.128;8.746;2022-11-06T14:56:33;91346.19;;;11.78;55.66
46778;BME280;32536;47.128;8.746;2022-11-06T14:59:07;91347.44;;;11.74;55.63
46778;BME280;32536;47.128;8.746;2022-11-06T15:01:53;91349.47;;;11.69;55.18
46778;BME280;32536;47.128;8.746;2022-11-06T15:04:27;91348.69;;;11.69;56.16
46778;BME280;32536;47.128;8.746;2022-11-06T15:07:06;91356.44;;;11.67;55.75
46778;BME280;32536;47.128;8.746;2022-11-06T15:12:05;91346.69;;;11.73;56.51
46778;BME280;32536;47.128;8.746;2022-11-06T15:19:41;91344.19;;;11.66;56.01
46778;BME280;32536;47.128;8.746;2022-11-06T15:25:39;91335.03;;;11.63;56.57
46778;BME280;32536;47.128;8.746;2022-11-06T15:28:10;91336.22;;;11.62;54.99
46778;BME280;32536;47.128;8.746;2022-11-06T15:30:51;91321.53;;;11.67;56.01
46778;BME280;32536;47.128;8.746;2022-11-06T15:33:44;91339.41;;;11.74;55.65
46778;BME280;32536;47.128;8.746;2022-11-06T15:36:13;91333.94;;;11.77;56.40
46778;BME280;32536;47.128;8.746;2022-11-06T15:38:42;91344.59;;;11.81;56.34
46778;BME280;32536;47.128;8.746;2022-11-06T15:41:16;91343.00;;;11.83;55.56
46778;BME280;32536;47.128;8.746;2022-11-06T15:43:52;91350.47;;;11.92;56.21
46778;BME280;32536;47.128;8.746;2022-11-06T15:46:22;91338.84;;;11.99;55.95
46778;BME280;32536;47.128;8.746;2022-11-06T15:49:19;91346.47;;;12.00;54.61
46778;BME280;32536;47.128;8.746;2022-11-06T15:52:02;91353.28;;;12.05;55.29
46778;BME280;32536;47.128;8.746;2022-11-06T15:54:41;91348.66;;;12.06;55.32
46778;BME280;32536;47.128;8.746;2022-11-06T15:57:22;91349.41;;;12.06;55.35
46778;BME280;32536;47.128;8.746;2022-11-06T16:00:27;91352.03;;;12.10;54.95
46778;BME280;32536;47.128;8.746;2022-11-06T16:03:00;91358.78;;;12.14;55.83
46778;BME280;32536;47.128;8.746;2022-11-06T16:05:30;91352.59;;;12.17;55.75
46778;BME280;32536;47.128;8.746;2022-11-06T16:08:02;91370.56;;;12.21;55.72
46778;BME280;32536;47.128;8.746;2022-11-06T16:10:32;91372.47;;;12.20;55.78
46778;BME280;32536;47.128;8.746;2022-11-06T16:13:01;91357.13;;;12.21;55.62
46778;BME280;32536;47.128;8.746;2022-11-06T16:21:26;91356.59;;;11.93;55.74
46778;BME280;32536;47.128;8.746;2022-11-06T16:24:14;91351.91;;;11.80;55.50